Terminal Aerodrome Forecast
Issued by NWS

Home | Current Version | Previous Version | Text Only | Print | Product List | Glossary On
Versions: 1 2 3 4 5 6 7 8 9 10 11 12 13 14 15 16 17 18 19 20 21 22 23 24 25 26 27 28 29 30 31 32 33 34 35 36 37 38 39 40 41 42 43 44
000
FTUS43 KGRB 261438 AAA
TAFATW
TAF AMD
KATW 261438Z 2615/2712 18008G16KT P6SM VCSH BKN050 OVC070
     FM261600 22013G22KT P6SM VCSH OVC060
     FM270000 24011KT P6SM SCT040 BKN120
     FM270400 26004KT P6SM SCT050 BKN090=

USA.gov is the U.S. government's official web portal to all federal, state and local government web resources and services.